Time;durP1;ratioP1;P1;durP2;ratioP2;P2;SDS_P1;SDS_P2;PMS_P1;PMS_P2;Temp;Humidity;BMP_temperature;BMP_pressure;BME280_temperature;BME280_humidity;BME280_pressure;Samples;Min_cycle;Max_cycle;Signal;HPM_P1;HPM_P2
2021/05/09 00:02:15;;;;;;;42.65;32.10;;;;;;;6.38;60.50;100674.22;127558;1102;22995;-75
2021/05/09 00:05:00;;;;;;;43.00;30.83;;;;;;;6.38;60.73;100684.72;127604;1104;24805;-75
2021/05/09 00:07:39;;;;;;;36.20;27.50;;;;;;;6.40;60.76;100676.70;127668;1104;24080;-75
2021/05/09 00:10:31;;;;;;;36.73;28.73;;;;;;;6.40;60.58;100677.55;127938;1100;24476;-75
2021/05/09 00:13:03;;;;;;;34.28;26.38;;;;;;;6.41;60.60;100681.83;128091;1101;23714;-74
2021/05/09 00:15:40;;;;;;;35.83;27.35;;;;;;;6.39;60.44;100673.25;128242;1098;24482;-73
2021/05/09 00:18:17;;;;;;;35.50;27.43;;;;;;;6.36;60.43;100678.76;128191;1101;23314;-73
2021/05/09 00:20:50;;;;;;;34.77;25.97;;;;;;;6.36;60.34;100670.88;128189;1100;22348;-73
2021/05/09 00:23:21;;;;;;;33.53;25.35;;;;;;;6.35;60.32;100669.23;128164;1101;22766;-75
2021/05/09 00:25:54;;;;;;;34.45;25.90;;;;;;;6.30;60.23;100663.57;128188;1101;22520;-74
2021/05/09 00:28:31;;;;;;;32.15;23.38;;;;;;;6.28;60.70;100662.86;128182;1101;22367;-74
2021/05/09 00:31:02;;;;;;;33.40;24.88;;;;;;;6.25;60.42;100661.33;128240;1098;25007;-74
2021/05/09 00:33:34;;;;;;;31.38;24.75;;;;;;;6.26;60.61;100664.77;128208;1098;25012;-75
2021/05/09 00:36:05;;;;;;;31.63;24.25;;;;;;;6.27;60.59;100661.20;128185;1098;24482;-72
2021/05/09 00:38:40;;;;;;;31.10;23.33;;;;;;;6.31;60.67;100663.42;128167;1098;24173;-73
2021/05/09 00:41:24;;;;;;;28.45;23.58;;;;;;;6.33;60.67;100660.66;127928;1104;22338;-73
2021/05/09 00:43:56;;;;;;;31.95;24.95;;;;;;;6.31;60.29;100652.10;127938;1100;24319;-74
2021/05/09 00:46:43;;;;;;;28.28;22.63;;;;;;;6.29;60.44;100654.02;127938;1100;24220;-74
2021/05/09 00:49:14;;;;;;;27.03;21.45;;;;;;;6.33;60.70;100650.16;127937;1104;22486;-72
2021/05/09 00:51:50;;;;;;;25.40;20.23;;;;;;;6.35;60.66;100659.56;127895;1101;22352;-73
2021/05/09 00:54:38;;;;;;;27.48;21.03;;;;;;;6.36;60.45;100649.89;127928;1104;22378;-73
2021/05/09 00:57:17;;;;;;;22.53;18.95;;;;;;;6.37;60.51;100651.58;127882;1105;23125;-73
2021/05/09 00:59:52;;;;;;;;;;;;;;;6.35;60.50;100643.82;127958;1104;22416;-73
2021/05/09 01:02:31;;;;;;;26.98;20.78;;;;;;;6.35;60.81;100642.99;127938;1101;21274;-74
2021/05/09 01:05:15;;;;;;;23.58;20.08;;;;;;;6.41;60.63;100637.22;127924;1101;22397;-73
2021/05/09 01:08:06;;;;;;;24.43;20.17;;;;;;;6.47;60.47;100643.73;127969;1104;22460;-74
2021/05/09 01:10:39;;;;;;;24.00;20.30;;;;;;;6.49;60.43;100634.74;128045;1101;22573;-73
2021/05/09 01:13:15;;;;;;;26.05;20.58;;;;;;;6.54;60.43;100637.80;128114;1098;22365;-74
2021/05/09 01:15:54;;;;;;;22.70;19.93;;;;;;;6.56;60.19;100640.28;128206;1101;22346;-72
2021/05/09 01:18:27;;;;;;;23.70;19.98;;;;;;;6.59;60.22;100634.77;128177;1101;22367;-72
2021/05/09 01:20:57;;;;;;;26.00;19.70;;;;;;;6.58;60.10;100636.56;128262;1098;22352;-74
2021/05/09 01:23:29;;;;;;;22.28;19.38;;;;;;;6.59;60.07;100635.59;128199;1101;22348;-74
2021/05/09 01:25:59;;;;;;;24.10;18.63;;;;;;;6.62;60.03;100636.30;128292;1100;22379;-74
2021/05/09 01:28:33;;;;;;;22.13;19.43;;;;;;;6.66;60.02;100642.93;128172;1101;22381;-73
2021/05/09 01:31:07;;;;;;;;;;;;;;;6.68;60.06;100638.39;128218;1101;22371;-74
2021/05/09 01:33:38;;;;;;;29.05;19.58;;;;;;;6.67;60.02;100628.86;127984;1098;21268;-74
2021/05/09 01:36:09;;;;;;;26.03;20.03;;;;;;;6.75;60.25;100627.20;128140;1101;24102;-74
2021/05/09 01:38:42;;;;;;;26.03;19.30;;;;;;;6.80;59.77;100632.06;128223;1098;24803;-73
2021/05/09 01:41:16;;;;;;;25.20;20.03;;;;;;;6.81;59.59;100620.58;128242;1096;24249;-74
2021/05/09 01:43:46;;;;;;;21.23;18.18;;;;;;;6.83;59.52;100629.13;128225;1098;24506;-73
2021/05/09 01:46:19;;;;;;;20.55;16.43;;;;;;;6.83;59.38;100629.13;128156;1101;22830;-73
2021/05/09 01:48:55;;;;;;;20.30;17.23;;;;;;;6.84;59.41;100626.38;128233;1098;24483;-74
2021/05/09 01:51:46;;;;;;;22.20;18.40;;;;;;;6.86;59.28;100630.66;128174;1098;24236;-73
2021/05/09 01:54:17;;;;;;;24.05;19.68;;;;;;;6.88;59.22;100631.37;128243;1098;25009;-74
2021/05/09 01:56:52;;;;;;;25.15;19.03;;;;;;;6.90;59.13;100626.79;128165;1098;24849;-73
2021/05/09 01:59:23;;;;;;;23.85;18.85;;;;;;;6.93;59.26;100619.49;128213;1101;23932;-73
2021/05/09 02:01:54;;;;;;;23.10;17.98;;;;;;;6.95;59.17;100620.17;128239;1101;22346;-72
2021/05/09 02:04:37;;;;;;;23.23;19.30;;;;;;;6.95;59.18;100612.28;128183;1098;22336;-76
2021/05/09 02:07:23;;;;;;;24.60;19.75;;;;;;;6.93;58.91;100611.61;128197;1101;22465;-75
2021/05/09 02:09:53;;;;;;;25.20;19.73;;;;;;;6.94;59.12;100613.27;128194;1098;22443;-74
2021/05/09 02:12:27;;;;;;;23.78;19.85;;;;;;;6.95;59.08;100612.28;128200;1098;24319;-73
2021/05/09 02:15:22;;;;;;;24.95;18.63;;;;;;;6.96;59.08;100618.37;128198;1098;22367;-74
2021/05/09 02:18:02;;;;;;;23.63;19.30;;;;;;;6.97;59.09;100606.91;128204;1098;22452;-74
2021/05/09 02:20:43;;;;;;;23.58;19.35;;;;;;;6.96;58.92;100606.06;128054;1101;22342;-72
2021/05/09 02:23:13;;;;;;;24.48;19.40;;;;;;;6.97;58.84;100617.42;127877;1105;23207;-72
2021/05/09 02:25:43;;;;;;;22.53;18.93;;;;;;;6.95;58.85;100603.58;128096;1104;22442;-72
2021/05/09 02:28:17;;;;;;;22.78;18.05;;;;;;;6.89;58.80;100604.95;127934;1104;22657;-72
2021/05/09 02:30:48;;;;;;;20.63;17.63;;;;;;;6.86;58.88;100609.66;127850;1101;24555;-73
2021/05/09 02:33:18;;;;;;;21.48;17.25;;;;;;;6.84;58.91;100601.92;127944;1101;22386;-73
2021/05/09 02:35:48;;;;;;;21.38;17.73;;;;;;;6.83;59.05;100601.10;127494;1105;24622;-74
2021/05/09 02:38:18;;;;;;;23.13;17.23;;;;;;;6.84;59.05;100591.42;127068;1105;24305;-73
2021/05/09 02:40:48;;;;;;;22.28;17.23;;;;;;;6.83;58.88;100590.59;126966;1109;22501;-73
2021/05/09 02:43:19;;;;;;;19.15;17.05;;;;;;;6.82;59.00;100598.59;127479;1108;22393;-73
2021/05/09 02:46:15;;;;;;;22.90;16.80;;;;;;;6.79;58.90;100597.06;127537;1107;22960;-76
2021/05/09 02:48:49;;;;;;;20.58;16.20;;;;;;;6.76;58.85;100589.47;126960;1108;22388;-72
2021/05/09 02:51:19;;;;;;;21.17;16.87;;;;;;;6.78;59.19;100590.16;126914;1111;22675;-74
2021/05/09 02:53:48;;;;;;;19.03;16.43;;;;;;;6.83;58.97;100601.10;127018;1108;22383;-74
2021/05/09 02:56:21;;;;;;;20.75;17.23;;;;;;;6.86;59.15;100592.09;127187;1107;22487;-74
2021/05/09 02:58:51;;;;;;;21.85;17.50;;;;;;;6.90;59.34;100590.02;127624;1104;22814;-74
2021/05/09 03:01:23;;;;;;;21.10;17.48;;;;;;;6.94;59.31;100592.25;127935;1101;24590;-73
2021/05/09 03:03:54;;;;;;;22.90;18.53;;;;;;;6.97;59.16;100594.60;128076;1104;22381;-73
2021/05/09 03:06:24;;;;;;;21.58;17.35;;;;;;;6.98;59.06;100593.63;127651;1105;22368;-75
2021/05/09 03:08:57;;;;;;;25.33;18.90;;;;;;;7.02;59.11;100594.17;127983;1104;22366;-71
2021/05/09 03:11:30;;;;;;;22.70;17.78;;;;;;;7.06;59.08;100587.67;127987;1104;22837;-73
2021/05/09 03:14:03;;;;;;;20.85;16.68;;;;;;;7.08;58.95;100583.12;127987;1101;24262;-73
2021/05/09 03:16:37;;;;;;;20.95;17.48;;;;;;;7.08;58.82;100585.75;128008;1101;23294;-74
2021/05/09 03:19:09;;;;;;;22.90;18.15;;;;;;;7.06;58.72;100587.67;127973;1101;24274;-72
2021/05/09 03:21:41;;;;;;;19.03;15.90;;;;;;;7.06;58.70;100587.67;127982;1104;22383;-74
2021/05/09 03:24:14;;;;;;;19.98;16.38;;;;;;;7.05;58.63;100586.02;128050;1101;22459;-74
2021/05/09 03:26:43;;;;;;;23.05;16.55;;;;;;;7.05;58.61;100578.97;128060;1098;22348;-72
2021/05/09 03:29:13;;;;;;;22.10;15.50;;;;;;;7.05;58.59;100578.97;128039;1104;22343;-72
2021/05/09 03:31:42;;;;;;;20.73;16.40;;;;;;;7.07;58.70;100577.05;127995;1104;22369;-72
2021/05/09 03:34:12;;;;;;;21.58;16.05;;;;;;;7.13;58.77;100572.18;127961;1101;22387;-71
2021/05/09 03:36:42;;;;;;;18.40;16.08;;;;;;;7.17;58.72;100577.03;128008;1104;23200;-72
2021/05/09 03:39:11;;;;;;;20.88;16.35;;;;;;;7.25;58.64;100569.27;127988;1105;22544;-71
2021/05/09 03:41:44;;;;;;;20.88;15.88;;;;;;;7.31;58.43;100573.14;127994;1104;22372;-72
2021/05/09 03:44:16;;;;;;;20.52;14.55;;;;;;;7.39;58.26;100578.50;127997;1104;22380;-72
2021/05/09 03:46:45;;;;;;;20.05;15.38;;;;;;;7.42;58.01;100575.59;127982;1098;23171;-72
2021/05/09 03:49:15;;;;;;;17.80;14.28;;;;;;;7.46;57.95;100579.63;128076;1098;22361;-72
2021/05/09 03:51:44;;;;;;;20.38;15.18;;;;;;;7.52;57.75;100576.40;127992;1102;22351;-72
2021/05/09 03:54:18;;;;;;;20.70;15.63;;;;;;;7.59;57.75;100583.72;127974;1101;24476;-73
2021/05/09 03:56:48;;;;;;;19.28;15.63;;;;;;;7.65;57.40;100572.64;127937;1100;22340;-73
2021/05/09 03:59:20;;;;;;;18.53;15.03;;;;;;;7.68;57.21;100567.09;128014;1100;24176;-73
2021/05/09 04:01:53;;;;;;;19.75;14.78;;;;;;;7.70;57.06;100568.61;127945;1104;22472;-73
2021/05/09 04:04:23;;;;;;;17.93;15.08;;;;;;;7.73;56.97;100572.73;127956;1104;22442;-73
2021/05/09 04:06:53;;;;;;;19.13;15.23;;;;;;;7.75;56.82;100571.63;127631;1103;22349;-73
2021/05/09 04:09:22;;;;;;;20.75;14.63;;;;;;;7.76;56.65;100572.45;127666;1104;22342;-73
2021/05/09 04:12:01;;;;;;;18.23;14.40;;;;;;;7.76;56.48;100562.78;127963;1104;22362;-73
2021/05/09 04:14:32;;;;;;;20.73;15.07;;;;;;;7.77;56.47;100560.98;127661;1103;22541;-74
2021/05/09 04:17:05;;;;;;;19.10;14.18;;;;;;;7.74;56.20;100562.09;127675;1104;22362;-73
2021/05/09 04:19:37;;;;;;;22.33;15.58;;;;;;;7.76;56.50;100551.41;127531;1108;22371;-73
2021/05/09 04:22:09;;;;;;;20.75;14.60;;;;;;;7.83;56.44;100546.40;127495;1108;22927;-74
2021/05/09 04:24:38;;;;;;;19.55;14.95;;;;;;;7.93;56.51;100553.30;127533;1108;22371;-73
2021/05/09 04:27:31;;;;;;;20.98;15.83;;;;;;;8.11;56.65;100553.33;127555;1108;22812;-73
2021/05/09 04:30:06;;;;;;;21.05;15.48;;;;;;;8.30;56.33;100548.92;127681;1105;22799;-73
2021/05/09 04:32:36;;;;;;;18.23;14.68;;;;;;;8.42;55.74;100548.59;128049;1104;22860;-73
2021/05/09 04:35:09;;;;;;;20.18;15.45;;;;;;;8.47;55.25;100554.26;128012;1101;24079;-72
2021/05/09 04:37:41;;;;;;;20.63;15.98;;;;;;;8.51;55.29;100556.59;127988;1101;22352;-72
2021/05/09 04:40:11;;;;;;;;;;;;;;;8.51;55.04;100560.05;127983;1104;22349;-73
2021/05/09 04:42:41;;;;;;;19.48;14.33;;;;;;;8.49;55.07;100557.55;127875;1105;21291;-72
2021/05/09 04:45:26;;;;;;;20.80;15.35;;;;;;;8.54;55.02;100553.67;127635;1104;22381;-73
2021/05/09 04:47:55;;;;;;;18.58;14.25;;;;;;;8.54;54.89;100562.39;127563;1105;22373;-72
2021/05/09 04:50:25;;;;;;;20.83;14.65;;;;;;;8.53;54.89;100563.38;127577;1104;22431;-76
2021/05/09 04:52:57;;;;;;;19.63;14.83;;;;;;;8.54;54.82;100565.02;127040;1108;22387;-74
2021/05/09 04:55:32;;;;;;;17.73;14.80;;;;;;;8.51;54.68;100556.59;127058;1106;22436;-72
2021/05/09 04:58:01;;;;;;;17.20;13.58;;;;;;;8.44;55.00;100549.29;126935;1111;22426;-72
2021/05/09 05:00:30;;;;;;;18.80;15.15;;;;;;;8.44;55.12;100554.55;126942;1111;23274;-72
2021/05/09 05:03:02;;;;;;;19.63;14.70;;;;;;;8.58;55.68;100563.73;126658;1108;22496;-72
2021/05/09 05:05:36;;;;;;;18.18;14.63;;;;;;;8.83;55.52;100563.95;126898;1108;24076;-74
2021/05/09 05:08:11;;;;;;;17.95;15.15;;;;;;;8.91;55.07;100554.33;126906;1106;24545;-72
2021/05/09 05:10:43;;;;;;;;;;;;;;;8.93;54.71;100556.83;127360;1104;22354;-72
2021/05/09 05:13:37;;;;;;;19.03;14.77;;;;;;;8.92;54.77;100555.97;127914;1104;22991;-71
2021/05/09 05:16:23;;;;;;;18.35;13.68;;;;;;;9.17;55.52;100553.55;128137;1100;22351;-72
2021/05/09 05:18:54;;;;;;;18.08;13.95;;;;;;;9.64;55.42;100555.83;128172;1101;22343;-74
2021/05/09 05:21:27;;;;;;;19.20;14.73;;;;;;;10.04;54.70;100551.72;128238;1101;22347;-74
2021/05/09 05:24:08;;;;;;;19.35;14.43;;;;;;;10.27;53.66;100552.82;128399;1101;22362;-72
2021/05/09 05:26:55;;;;;;;17.65;13.93;;;;;;;10.56;53.48;100552.40;128020;1104;22375;-72
2021/05/09 05:29:26;;;;;;;17.18;13.98;;;;;;;10.93;52.91;100545.82;127969;1103;22370;-72
2021/05/09 05:31:57;;;;;;;17.85;14.35;;;;;;;11.16;51.91;100550.42;127948;1104;22485;-72
2021/05/09 05:34:33;;;;;;;18.88;14.85;;;;;;;11.31;51.38;100539.00;127959;1104;22353;-73
2021/05/09 05:37:11;;;;;;;19.08;14.98;;;;;;;11.56;51.82;100533.65;127911;1104;22374;-73
2021/05/09 05:39:41;;;;;;;17.20;13.78;;;;;;;11.95;51.30;100540.83;127954;1104;22346;-73
2021/05/09 05:42:17;;;;;;;18.53;14.23;;;;;;;12.24;50.69;100551.63;127916;1104;22357;-73
2021/05/09 05:44:46;;;;;;;18.68;14.43;;;;;;;12.35;49.53;100554.88;128022;1101;22745;-73
2021/05/09 05:47:17;;;;;;;21.33;17.90;;;;;;;12.33;49.11;100555.06;128194;1098;22381;-74
2021/05/09 05:49:54;;;;;;;18.00;14.38;;;;;;;12.27;48.99;100549.64;128014;1101;24353;-75
2021/05/09 05:52:24;;;;;;;18.20;14.65;;;;;;;12.16;49.66;100540.23;128202;1101;22449;-74
2021/05/09 05:55:20;;;;;;;16.38;13.18;;;;;;;12.39;50.12;100542.92;128211;1101;23883;-74
2021/05/09 05:57:49;;;;;;;16.05;12.83;;;;;;;12.67;49.97;100538.77;128250;1101;22365;-75
2021/05/09 06:00:23;;;;;;;16.90;12.73;;;;;;;12.95;48.64;100535.56;128195;1101;22708;-75
2021/05/09 06:03:00;;;;;;;16.20;12.30;;;;;;;13.27;48.56;100531.02;128243;1098;22857;-74
2021/05/09 06:05:31;;;;;;;14.08;12.13;;;;;;;13.37;47.67;100528.92;128214;1101;22360;-74
2021/05/09 06:08:04;;;;;;;19.35;12.53;;;;;;;13.43;47.48;100530.86;128036;1098;24488;-74
2021/05/09 06:10:34;;;;;;;19.70;13.20;;;;;;;13.57;47.30;100519.41;128060;1101;24522;-75
2021/05/09 06:13:08;;;;;;;13.53;11.60;;;;;;;13.69;47.38;100526.91;127928;1101;23178;-75
2021/05/09 06:15:50;;;;;;;14.33;11.40;;;;;;;14.08;47.66;100524.75;127926;1104;22636;-74
2021/05/09 06:18:22;;;;;;;15.15;12.58;;;;;;;14.44;46.50;100515.14;128036;1101;22390;-73
2021/05/09 06:20:58;;;;;;;12.85;10.98;;;;;;;14.66;45.15;100522.15;127997;1104;22807;-73
2021/05/09 06:23:41;;;;;;;14.55;12.38;;;;;;;14.82;45.85;100524.52;127602;1104;22366;-74
2021/05/09 06:26:16;;;;;;;16.60;13.00;;;;;;;15.20;45.19;100534.05;127043;1106;22415;-73
2021/05/09 06:28:57;;;;;;;14.60;10.83;;;;;;;15.43;44.82;100523.98;127500;1108;22545;-73
2021/05/09 06:31:27;;;;;;;13.70;12.23;;;;;;;15.68;43.87;100524.34;127146;1107;22430;-73
2021/05/09 06:34:02;;;;;;;16.53;12.53;;;;;;;15.91;43.51;100520.56;127490;1108;22412;-74
2021/05/09 06:36:33;;;;;;;;;;;;;;;16.05;42.78;100524.91;127521;1105;22381;-73
2021/05/09 06:39:07;;;;;;;14.45;11.18;;;;;;;16.04;43.18;100522.47;127583;1105;21283;-75
2021/05/09 06:41:40;;;;;;;15.60;10.85;;;;;;;16.20;43.25;100514.12;127661;1101;22441;-73
2021/05/09 06:44:12;;;;;;;13.05;11.13;;;;;;;16.33;42.64;100511.48;127644;1104;22378;-75
2021/05/09 06:46:45;;;;;;;13.33;11.13;;;;;;;16.61;42.84;100516.66;127982;1101;25105;-74
2021/05/09 06:49:17;;;;;;;12.53;10.13;;;;;;;17.04;42.51;100510.96;128018;1104;22449;-73
2021/05/09 06:51:47;;;;;;;12.85;9.58;;;;;;;17.23;40.97;100503.97;127559;1104;22433;-74
2021/05/09 06:54:21;;;;;;;13.73;10.65;;;;;;;17.53;41.49;100501.65;127938;1103;24514;-74
2021/05/09 06:56:55;;;;;;;11.25;9.53;;;;;;;17.94;40.95;100508.52;127490;1108;22382;-73
2021/05/09 06:59:28;;;;;;;12.20;10.33;;;;;;;18.17;39.60;100510.67;127499;1108;22370;-75
2021/05/09 07:02:01;;;;;;;12.38;11.08;;;;;;;18.35;39.40;100507.27;127501;1108;22350;-74
2021/05/09 07:04:38;;;;;;;12.45;11.03;;;;;;;18.50;38.78;100517.70;127502;1103;24297;-75
2021/05/09 07:07:08;;;;;;;11.33;10.05;;;;;;;18.67;38.87;100504.61;127545;1105;24983;-73
2021/05/09 07:09:44;;;;;;;10.65;8.68;;;;;;;18.90;38.02;100498.70;127444;1105;22380;-75
2021/05/09 07:12:13;;;;;;;10.28;9.28;;;;;;;19.18;37.88;100498.23;127891;1104;22379;-73
2021/05/09 07:14:50;;;;;;;11.70;9.40;;;;;;;19.62;37.57;100510.53;127999;1101;22344;-75
2021/05/09 07:17:22;;;;;;;9.67;8.67;;;;;;;19.79;36.58;100507.29;127966;1104;22446;-73
2021/05/09 07:20:03;;;;;;;10.55;9.48;;;;;;;19.78;36.11;100498.43;127951;1101;24501;-74
2021/05/09 07:22:41;;;;;;;11.33;7.63;;;;;;;19.88;36.12;100504.08;127958;1101;22456;-74
2021/05/09 07:25:17;;;;;;;8.68;7.80;;;;;;;20.16;36.30;100502.71;127921;1104;22212;-75
2021/05/09 07:27:50;;;;;;;11.50;10.18;;;;;;;20.37;35.69;100514.80;127472;1107;22373;-73
2021/05/09 07:30:24;;;;;;;9.28;7.00;;;;;;;20.70;35.21;100508.97;127463;1107;22370;-76
2021/05/09 07:32:57;;;;;;;9.85;7.00;;;;;;;20.85;34.49;100503.14;127558;1107;22374;-72
2021/05/09 07:35:33;;;;;;;9.55;7.25;;;;;;;20.90;34.08;100500.59;127634;1101;24148;-74
2021/05/09 07:38:08;;;;;;;8.23;6.90;;;;;;;20.93;33.83;100507.37;127560;1103;22354;-75
2021/05/09 07:40:45;;;;;;;8.40;7.30;;;;;;;20.93;33.91;100505.50;127500;1105;22371;-74
2021/05/09 07:43:32;;;;;;;7.15;6.45;;;;;;;20.90;33.00;100509.45;127521;1107;22312;-74
2021/05/09 07:46:13;;;;;;;7.13;6.43;;;;;;;20.78;32.87;100497.88;127772;1104;23225;-75
2021/05/09 07:48:49;;;;;;;6.85;6.15;;;;;;;20.93;33.17;100491.26;127947;1101;24492;-75
2021/05/09 07:51:41;;;;;;;7.18;6.48;;;;;;;20.91;33.23;100507.58;127582;1107;22397;-74
2021/05/09 07:54:14;;;;;;;7.80;6.78;;;;;;;21.05;33.15;100500.93;127569;1104;24507;-74
2021/05/09 07:56:57;;;;;;;9.10;7.33;;;;;;;20.84;32.31;100501.52;127831;1105;23111;-74
2021/05/09 07:59:29;;;;;;;8.28;7.00;;;;;;;20.79;33.47;100499.53;127967;1101;22359;-78
2021/05/09 08:02:13;;;;;;;12.00;8.73;;;;;;;20.95;33.29;100498.01;127554;1104;22386;-75
2021/05/09 08:05:13;;;;;;;15.10;7.50;;;;;;;21.02;32.34;100495.21;127550;1107;23222;-78
2021/05/09 08:07:56;;;;;;;9.07;6.63;;;;;;;21.05;32.40;100508.17;127602;1104;24993;-74
2021/05/09 08:10:42;;;;;;;6.10;5.48;;;;;;;21.13;32.09;100499.78;127835;1100;24259;-76
2021/05/09 08:13:45;;;;;;;;;;;;;;;;;;;;;
2021/05/09 08:16:17;;;;;;;8.40;5.95;;;;;;;21.25;31.63;100505.14;127610;1105;24517;-74
2021/05/09 08:19:02;;;;;;;11.08;8.78;;;;;;;21.41;31.56;100507.15;127098;1106;22446;-74
2021/05/09 08:21:59;;;;;;;7.63;6.83;;;;;;;21.61;31.38;100496.02;127181;1107;22404;-74
2021/05/09 08:24:32;;;;;;;8.70;5.93;;;;;;;21.78;30.40;100504.97;127087;1107;23928;-75
2021/05/09 08:27:06;;;;;;;7.60;6.07;;;;;;;21.90;30.42;100504.95;126705;1111;24047;-74
2021/05/09 08:29:42;;;;;;;7.58;6.45;;;;;;;22.00;30.40;100507.84;126707;1111;22453;-75
2021/05/09 08:32:20;;;;;;;8.43;6.60;;;;;;;21.94;30.16;100505.28;126586;1111;22859;-76
2021/05/09 08:35:08;;;;;;;10.38;6.85;;;;;;;22.09;30.35;100503.72;126964;1109;22410;-75
2021/05/09 08:37:46;;;;;;;8.53;6.18;;;;;;;22.26;30.83;100502.98;126744;1111;22406;-74
2021/05/09 08:40:24;;;;;;;7.55;6.20;;;;;;;22.50;30.78;100499.09;126620;1112;22410;-75
2021/05/09 08:43:12;;;;;;;10.05;8.13;;;;;;;22.98;30.56;100508.52;126705;1111;24539;-76
2021/05/09 08:46:27;;;;;;;7.68;6.43;;;;;;;23.17;29.29;100500.17;127012;1111;23427;-77
2021/05/09 08:50:28;;;;;;;9.05;6.35;;;;;;;23.09;29.20;100490.64;126713;1114;22390;-75
2021/05/09 08:53:46;;;;;;;;;;;;;;;;;;;;;
2021/05/09 08:56:34;;;;;;;9.37;6.30;;;;;;;22.97;28.82;100504.20;126930;1111;22447;-75
2021/05/09 09:00:06;;;;;;;6.30;5.20;;;;;;;22.68;29.34;100495.34;126940;1108;25756;-76
2021/05/09 09:03:03;;;;;;;6.23;5.63;;;;;;;22.97;29.02;100489.91;126650;1111;22382;-76
2021/05/09 09:05:44;;;;;;;9.18;5.40;;;;;;;22.99;28.53;100491.31;126673;1111;22385;-76
2021/05/09 09:08:32;;;;;;;9.10;4.77;;;;;;;23.29;28.52;100490.09;126814;1107;22886;-74
2021/05/09 09:11:31;;;;;;;6.40;5.23;;;;;;;23.35;28.28;100490.98;127317;1104;22350;-75
2021/05/09 09:14:25;;;;;;;7.08;5.33;;;;;;;23.47;28.32;100499.78;127603;1107;22350;-75
2021/05/09 09:17:49;;;;;;;5.15;4.53;;;;;;;23.51;27.71;100490.13;127882;1104;23132;-74
2021/05/09 09:20:25;;;;;;;7.45;6.65;;;;;;;23.48;27.72;100488.73;127998;1104;22429;-74
2021/05/09 09:23:10;;;;;;;;;;;;;;;;;;;;;
2021/05/09 09:25:48;;;;;;;5.15;4.30;;;;;;;23.65;27.22;100494.07;127609;1105;22447;-75
2021/05/09 09:29:34;;;;;;;5.55;4.60;;;;;;;23.67;26.79;100491.14;127340;1107;22368;-75
2021/05/09 09:32:11;;;;;;;5.50;4.68;;;;;;;23.32;26.99;100500.38;127219;1108;22448;-76
2021/05/09 09:35:28;;;;;;;6.18;4.88;;;;;;;23.29;27.59;100490.09;127106;1106;22378;-75
2021/05/09 09:38:56;;;;;;;9.27;4.27;;;;;;;23.62;27.94;100491.06;127232;1108;22366;-76
2021/05/09 09:42:06;;;;;;;5.23;4.00;;;;;;;23.93;27.42;100476.91;127838;1104;22368;-76
2021/05/09 09:45:18;;;;;;;6.55;4.33;;;;;;;24.02;26.44;100484.55;128006;1104;24279;-76
2021/05/09 09:48:06;;;;;;;5.50;4.15;;;;;;;23.99;26.50;100477.77;128033;1103;22373;-75
2021/05/09 09:50:51;;;;;;;5.20;3.50;;;;;;;24.11;27.26;100464.95;128069;1099;24175;-74
2021/05/09 09:53:45;;;;;;;8.05;6.93;;;;;;;24.14;26.97;100477.94;128075;1101;22357;-75
2021/05/09 09:56:29;;;;;;;5.68;3.40;;;;;;;24.33;26.80;100472.19;128056;1100;24569;-75
2021/05/09 09:59:36;;;;;;;4.43;3.58;;;;;;;24.62;26.38;100468.16;128139;1101;22377;-75
2021/05/09 10:02:14;;;;;;;5.93;3.85;;;;;;;24.69;26.21;100470.61;127993;1104;23313;-75
2021/05/09 10:05:15;;;;;;;7.75;3.98;;;;;;;24.59;25.75;100471.38;127570;1104;24290;-74
2021/05/09 10:08:21;;;;;;;;;;;;;;;;;;;;;
2021/05/09 10:11:24;;;;;;;4.73;3.65;;;;;;;24.64;25.64;100460.59;127590;1107;22399;-74
2021/05/09 10:14:19;;;;;;;6.65;3.80;;;;;;;24.51;25.11;100455.63;127662;1105;23803;-74
2021/05/09 10:16:53;;;;;;;5.23;3.80;;;;;;;24.58;25.57;100444.60;127589;1104;22385;-75
2021/05/09 10:19:28;;;;;;;4.33;3.67;;;;;;;24.37;24.93;100446.30;127992;1104;22372;-75
2021/05/09 10:22:37;;;;;;;4.13;3.33;;;;;;;24.07;25.33;100444.94;127999;1102;23317;-75
2021/05/09 10:25:07;;;;;;;4.63;3.18;;;;;;;24.10;25.66;100441.73;128063;1098;24479;-75
2021/05/09 10:27:42;;;;;;;4.58;2.98;;;;;;;24.09;25.50;100444.67;128298;1101;22334;-76
2021/05/09 10:30:46;;;;;;;4.43;3.48;;;;;;;23.72;25.47;100439.97;128088;1101;22337;-74
2021/05/09 10:33:38;;;;;;;4.10;2.90;;;;;;;23.63;25.79;100436.89;128283;1101;22367;-75
2021/05/09 10:36:43;;;;;;;;;;;;;;;;;;;;;
2021/05/09 10:39:20;;;;;;;4.50;3.08;;;;;;;23.15;26.30;100424.95;128285;1101;22344;-75
2021/05/09 10:41:55;;;;;;;4.25;3.10;;;;;;;22.90;26.93;100424.59;127980;1102;22358;-74
2021/05/09 10:44:49;;;;;;;7.15;3.13;;;;;;;22.86;27.16;100431.52;128075;1101;22348;-76
2021/05/09 10:47:31;;;;;;;5.20;3.30;;;;;;;22.86;27.05;100424.27;128047;1102;22352;-75
2021/05/09 10:50:15;;;;;;;5.53;2.80;;;;;;;22.82;27.69;100422.30;128127;1101;22349;-74
2021/05/09 10:52:55;;;;;;;3.58;2.15;;;;;;;22.66;27.20;100423.94;128309;1098;24980;-75
2021/05/09 10:55:45;;;;;;;5.30;2.68;;;;;;;22.36;27.33;100413.50;128243;1101;22348;-75
2021/05/09 10:58:50;;;;;;;5.53;2.43;;;;;;;22.23;27.38;100417.34;128311;1098;24246;-74
2021/05/09 11:01:32;;;;;;;3.68;2.53;;;;;;;22.02;28.39;100411.55;128267;1096;24517;-75
2021/05/09 11:04:19;;;;;;;3.08;2.05;;;;;;;21.98;28.00;100410.41;128253;1098;22341;-75
2021/05/09 11:06:50;;;;;;;4.00;2.25;;;;;;;21.91;28.09;100408.94;128302;1098;24215;-75
2021/05/09 11:09:44;;;;;;;5.10;2.33;;;;;;;21.76;28.18;100418.36;128153;1098;22410;-75
2021/05/09 11:12:20;;;;;;;3.30;1.80;;;;;;;21.69;28.11;100408.78;127982;1101;22603;-75
2021/05/09 11:15:12;;;;;;;4.68;1.83;;;;;;;21.57;28.11;100404.28;127553;1106;23415;-76
2021/05/09 11:17:49;;;;;;;3.40;2.45;;;;;;;21.50;28.92;100403.61;127629;1107;22481;-75
2021/05/09 11:20:27;;;;;;;3.57;2.50;;;;;;;21.40;28.28;100400.72;127540;1107;22382;-75
2021/05/09 11:23:00;;;;;;;3.53;2.05;;;;;;;21.32;28.14;100391.10;127578;1108;22419;-74
2021/05/09 11:25:49;;;;;;;2.53;1.83;;;;;;;21.24;28.53;100387.98;127701;1104;24510;-74
2021/05/09 11:28:30;;;;;;;3.53;2.28;;;;;;;21.21;28.11;100388.45;127063;1111;22377;-75
2021/05/09 11:31:30;;;;;;;4.85;2.10;;;;;;;21.13;28.31;100377.03;127361;1108;22755;-73
2021/05/09 11:34:05;;;;;;;3.65;1.70;;;;;;;20.95;28.29;100379.85;127567;1105;22434;-73
2021/05/09 11:36:51;;;;;;;2.88;1.90;;;;;;;20.89;28.06;100381.63;127824;1101;24851;-75
2021/05/09 11:39:36;;;;;;;4.18;2.55;;;;;;;20.89;28.67;100378.10;127642;1103;22368;-73
2021/05/09 11:42:17;;;;;;;3.63;2.70;;;;;;;20.98;28.35;100363.27;127120;1104;24572;-74
2021/05/09 11:44:56;;;;;;;4.85;3.50;;;;;;;21.08;29.19;100368.85;127511;1105;24502;-74
2021/05/09 11:47:32;;;;;;;5.70;2.38;;;;;;;21.10;28.37;100369.45;127104;1107;24276;-73
2021/05/09 11:50:16;;;;;;;5.20;1.75;;;;;;;21.03;28.76;100368.77;127118;1105;22506;-73
2021/05/09 11:52:46;;;;;;;4.08;3.10;;;;;;;21.06;28.72;100370.98;127100;1108;22374;-74
2021/05/09 11:55:19;;;;;;;2.70;2.03;;;;;;;21.13;28.64;100370.84;127516;1108;22380;-74
2021/05/09 11:57:59;;;;;;;4.93;2.43;;;;;;;21.13;28.51;100360.11;127216;1103;22395;-74
2021/05/09 12:00:32;;;;;;;2.70;1.95;;;;;;;21.00;28.93;100358.48;127766;1104;22352;-76
2021/05/09 12:03:13;;;;;;;3.50;2.40;;;;;;;21.00;28.75;100357.68;127999;1104;22332;-75
2021/05/09 12:05:48;;;;;;;5.65;2.15;;;;;;;20.95;29.15;100353.00;128019;1104;22345;-74
2021/05/09 12:08:20;;;;;;;4.20;2.55;;;;;;;21.03;29.56;100339.22;127970;1104;22348;-75
2021/05/09 12:10:55;;;;;;;5.93;2.85;;;;;;;21.07;29.59;100350.30;127971;1101;22354;-74
2021/05/09 12:13:35;;;;;;;;;;;;;;;21.04;29.01;100356.95;128324;1101;22467;-74
2021/05/09 12:16:11;;;;;;;2.78;2.18;;;;;;;21.01;29.40;100341.31;128306;1101;21277;-74